createdAt,value
2019-03-17T00:07:02.786Z,14.20
2019-03-17T00:17:08.183Z,14.20
2019-03-17T00:27:13.567Z,14.30
2019-03-17T00:37:19.007Z,14.30
2019-03-17T00:47:24.448Z,14.30
2019-03-17T00:57:29.985Z,14.30
2019-03-17T01:07:35.429Z,14.30
2019-03-17T01:17:42.969Z,14.30
2019-03-17T01:27:48.482Z,14.30
2019-03-17T01:37:54.907Z,14.30
2019-03-17T01:48:00.243Z,14.30
2019-03-17T01:58:05.634Z,14.30
2019-03-17T02:08:10.975Z,14.30
2019-03-17T02:18:16.371Z,14.30
2019-03-17T02:28:21.712Z,14.30
2019-03-17T02:38:27.124Z,14.30
2019-03-17T02:48:32.537Z,14.30
2019-03-17T02:58:37.867Z,14.30
2019-03-17T03:08:43.282Z,14.30
2019-03-17T03:18:48.638Z,14.30
2019-03-17T03:28:55.106Z,14.30
2019-03-17T03:39:00.446Z,14.30
2019-03-17T03:49:05.753Z,14.30
2019-03-17T03:59:11.239Z,14.30
2019-03-17T04:09:16.699Z,14.30
2019-03-17T04:19:22.068Z,14.30
2019-03-17T04:29:29.803Z,14.30
2019-03-17T04:39:35.237Z,14.30
2019-03-17T04:49:40.664Z,14.30
2019-03-17T04:59:46.146Z,14.30
2019-03-17T05:09:51.601Z,14.30
2019-03-17T05:19:57.011Z,14.40
2019-03-17T05:30:02.313Z,14.30
2019-03-17T05:40:07.839Z,14.40
2019-03-17T05:50:13.167Z,14.30
2019-03-17T06:00:19.344Z,14.30
2019-03-17T06:10:24.777Z,14.30
2019-03-17T06:20:30.132Z,14.30
2019-03-17T06:30:35.443Z,14.40
2019-03-17T06:40:40.827Z,14.40
2019-03-17T06:50:46.288Z,14.40
2019-03-17T07:00:52.075Z,14.40
2019-03-17T07:10:57.723Z,14.40
2019-03-17T07:21:03.042Z,14.40
2019-03-17T07:31:08.454Z,14.40
2019-03-17T07:41:14.160Z,14.40
2019-03-17T07:51:19.478Z,14.40
2019-03-17T08:01:24.804Z,14.40
2019-03-17T08:11:30.337Z,14.30
2019-03-17T08:21:35.791Z,14.30
2019-03-17T08:31:41.101Z,14.30
2019-03-17T08:41:46.616Z,14.40
2019-03-17T08:51:52.046Z,14.30
2019-03-17T09:01:57.454Z,14.30
2019-03-17T09:12:02.891Z,14.30
2019-03-17T09:22:08.307Z,14.30
2019-03-17T09:32:13.708Z,14.30
2019-03-17T09:42:19.027Z,14.30
2019-03-17T09:52:24.433Z,14.30
2019-03-17T10:02:29.820Z,14.30
2019-03-17T10:12:36.126Z,14.30
2019-03-17T10:22:41.465Z,14.30
2019-03-17T10:32:46.826Z,14.30
2019-03-17T10:42:52.139Z,14.30
2019-03-17T10:52:57.580Z,14.30
2019-03-17T11:03:04.611Z,14.30
2019-03-17T11:13:10.203Z,14.30
2019-03-17T11:23:15.699Z,14.30
2019-03-17T11:33:21.054Z,14.30
2019-03-17T11:43:26.671Z,14.30
2019-03-17T11:53:32.079Z,14.30
2019-03-17T12:03:37.412Z,14.30
2019-03-17T12:13:42.724Z,14.30
2019-03-17T12:23:48.200Z,14.30
2019-03-17T12:33:53.651Z,14.30
2019-03-17T12:43:58.957Z,14.40
2019-03-17T12:54:04.282Z,14.40
2019-03-17T13:04:09.719Z,14.40
2019-03-17T13:14:15.052Z,14.40
2019-03-17T13:24:20.363Z,14.40
2019-03-17T13:34:25.726Z,14.50
2019-03-17T13:44:31.110Z,14.50
2019-03-17T13:54:36.427Z,14.50
2019-03-17T14:04:41.965Z,14.50
2019-03-17T14:14:47.389Z,14.50
2019-03-17T14:24:52.894Z,14.50
2019-03-17T14:34:58.215Z,14.50
2019-03-17T14:45:03.533Z,14.60
2019-03-17T14:55:08.904Z,14.60
2019-03-17T15:05:14.282Z,14.60
2019-03-17T15:15:19.656Z,14.60
2019-03-17T15:25:24.972Z,14.70
2019-03-17T15:35:30.352Z,14.70
2019-03-17T15:45:35.678Z,14.70
2019-03-17T15:55:41.087Z,14.70
2019-03-17T16:05:47.486Z,14.70
2019-03-17T16:15:53.145Z,14.80
2019-03-17T16:25:58.579Z,14.70
2019-03-17T16:36:03.924Z,14.80
2019-03-17T16:46:09.405Z,14.80
2019-03-17T16:56:14.717Z,14.80
2019-03-17T17:06:20.245Z,14.80
2019-03-17T17:16:25.641Z,14.80
2019-03-17T17:26:37.350Z,14.80
2019-03-17T17:36:39.565Z,14.80
2019-03-17T17:46:44.881Z,14.80
2019-03-17T17:56:50.270Z,14.80
2019-03-17T18:06:55.692Z,14.80
2019-03-17T18:17:01.112Z,14.90
2019-03-17T18:27:06.465Z,14.90
2019-03-17T18:37:11.786Z,14.80
2019-03-17T18:47:17.430Z,14.90
2019-03-17T18:57:23.076Z,14.80
2019-03-17T19:07:28.538Z,14.80
2019-03-17T19:17:34.031Z,14.90
2019-03-17T19:27:39.534Z,14.90
2019-03-17T19:37:44.972Z,14.80
2019-03-17T19:47:50.279Z,14.90
2019-03-17T19:57:55.613Z,14.80
2019-03-17T20:08:01.100Z,14.90
2019-03-17T20:18:06.896Z,14.90
2019-03-17T20:28:12.310Z,14.90
2019-03-17T20:38:17.621Z,14.90
2019-03-17T20:48:23.268Z,14.90
2019-03-17T20:58:28.884Z,14.90
2019-03-17T21:08:34.220Z,14.90
2019-03-17T21:18:39.806Z,14.90
2019-03-17T21:28:45.203Z,14.90
2019-03-17T21:38:50.523Z,14.90
2019-03-17T21:48:55.956Z,14.90
2019-03-17T21:59:01.399Z,14.90
2019-03-17T22:09:08.501Z,14.90
2019-03-17T22:19:13.834Z,14.90
2019-03-17T22:29:19.202Z,14.90
2019-03-17T22:39:24.701Z,14.90
2019-03-17T22:49:32.751Z,14.90
2019-03-17T22:59:38.168Z,14.90
2019-03-17T23:09:44.537Z,14.90
2019-03-17T23:19:49.962Z,14.90
2019-03-17T23:29:55.337Z,14.90
2019-03-17T23:40:00.708Z,14.90
2019-03-17T23:50:06.496Z,14.90
